createdAt,value
2024-02-02T00:01:00.064Z,13.0
2024-02-02T00:06:00.123Z,13.0
2024-02-02T00:11:00.089Z,14.5
2024-02-02T00:16:00.063Z,13.8
2024-02-02T00:21:00.079Z,16.2
2024-02-02T00:26:00.096Z,19.0
2024-02-02T00:31:00.073Z,19.1
2024-02-02T00:36:00.066Z,19.1
2024-02-02T00:41:00.090Z,17.4
2024-02-02T00:46:00.075Z,20.8
2024-02-02T00:51:00.119Z,22.2
2024-02-02T00:56:00.082Z,23.4
2024-02-02T01:01:00.082Z,19.7
2024-02-02T01:06:00.147Z,19.7
2024-02-02T01:11:02.149Z,15.8
2024-02-02T01:16:00.104Z,19.5
2024-02-02T01:21:00.061Z,16.6
2024-02-02T01:26:00.069Z,21.1
2024-02-02T01:31:00.030Z,15.1
2024-02-02T01:36:00.100Z,15.1
2024-02-02T01:41:00.068Z,11.3
2024-02-02T01:46:00.054Z,14.9
2024-02-02T01:51:00.121Z,16.7
2024-02-02T01:56:00.051Z,21.0
2024-02-02T02:01:00.104Z,19.1
2024-02-02T02:06:00.146Z,19.1
2024-02-02T02:11:00.062Z,21.7
2024-02-02T02:16:00.065Z,11.6
2024-02-02T02:21:00.102Z,12.4
2024-02-02T02:26:00.088Z,19.0
2024-02-02T02:31:00.085Z,7.8
2024-02-02T02:36:00.081Z,7.8
2024-02-02T02:41:00.050Z,12.4
2024-02-02T02:46:00.049Z,12.1
2024-02-02T02:51:00.062Z,15.3
2024-02-02T02:56:00.077Z,17.8
2024-02-02T03:06:00.229Z,17.8
2024-02-02T03:11:00.087Z,16.7
2024-02-02T03:16:00.055Z,16.2
2024-02-02T03:21:00.066Z,19.8
2024-02-02T03:26:00.111Z,14.2
2024-02-02T03:31:00.057Z,16.6
2024-02-02T03:36:00.111Z,16.6
2024-02-02T03:41:00.071Z,19.5
2024-02-02T03:46:00.049Z,13.4
2024-02-02T03:51:00.098Z,9.4
2024-02-02T03:56:00.090Z,12.0
2024-02-02T04:01:00.147Z,14.1
2024-02-02T04:06:00.133Z,14.1
2024-02-02T04:11:00.075Z,9.3
2024-02-02T04:16:00.088Z,13.6
2024-02-02T04:21:00.107Z,17.8
2024-02-02T04:26:00.083Z,11.8
2024-02-02T04:31:00.083Z,13.8
2024-02-02T04:36:00.142Z,13.8
2024-02-02T04:41:00.064Z,14.7
2024-02-02T04:46:00.072Z,9.8
2024-02-02T04:51:00.147Z,11.1
2024-02-02T04:56:00.117Z,9.6
2024-02-02T05:01:00.086Z,10.6
2024-02-02T05:06:00.112Z,10.6
2024-02-02T05:11:00.084Z,8.7
2024-02-02T05:16:00.112Z,8.6
2024-02-02T05:21:00.095Z,4.0
2024-02-02T05:26:00.107Z,6.7
2024-02-02T05:31:00.067Z,4.8
2024-02-02T05:36:00.094Z,4.8
2024-02-02T05:41:00.078Z,6.6
2024-02-02T05:46:00.111Z,5.5
2024-02-02T05:51:00.130Z,4.3
2024-02-02T05:56:00.065Z,4.7
2024-02-02T06:01:00.095Z,6.0
2024-02-02T06:06:00.242Z,6.0
2024-02-02T06:11:00.069Z,4.1
2024-02-02T06:16:00.093Z,2.4
2024-02-02T06:21:00.128Z,2.0
2024-02-02T06:26:00.100Z,1.9
2024-02-02T06:31:00.078Z,2.3
2024-02-02T06:36:00.153Z,2.3
2024-02-02T06:41:00.064Z,4.1
2024-02-02T06:46:00.062Z,8.2
2024-02-02T06:51:01.708Z,2.9
2024-02-02T06:56:00.104Z,1.6
2024-02-02T07:01:00.177Z,1.4
2024-02-02T07:06:00.140Z,1.4
2024-02-02T07:11:00.096Z,2.1
2024-02-02T07:16:00.037Z,1.6
2024-02-02T07:21:00.104Z,1.3
2024-02-02T07:26:00.094Z,1.9
2024-02-02T07:31:00.075Z,2.3
2024-02-02T07:36:00.147Z,2.3
2024-02-02T07:41:00.055Z,2.1
2024-02-02T07:46:00.051Z,2.3
2024-02-02T07:51:00.122Z,1.7
2024-02-02T07:56:00.075Z,1.3
2024-02-02T08:01:00.236Z,2.2
2024-02-02T08:06:00.159Z,2.2
2024-02-02T08:11:00.068Z,1.8
2024-02-02T08:16:00.175Z,2.7
2024-02-02T08:21:00.084Z,2.9
2024-02-02T08:26:00.085Z,3.1
2024-02-02T08:31:00.097Z,2.4
2024-02-02T08:36:00.280Z,2.4
2024-02-02T08:41:00.070Z,2.4
2024-02-02T08:46:00.094Z,2.8
2024-02-02T08:51:00.108Z,2.3
2024-02-02T08:56:00.073Z,3.2
2024-02-02T09:01:00.143Z,4.2
2024-02-02T09:06:00.261Z,4.2
2024-02-02T09:11:00.066Z,1.9
2024-02-02T09:16:00.131Z,1.7
2024-02-02T09:21:00.056Z,2.2
2024-02-02T09:26:00.104Z,2.0
2024-02-02T09:31:00.070Z,2.4
2024-02-02T09:36:00.098Z,2.4
2024-02-02T09:41:00.112Z,2.0
2024-02-02T09:46:00.078Z,2.5
2024-02-02T09:51:00.294Z,3.2
2024-02-02T09:56:00.092Z,3.0
2024-02-02T10:01:00.113Z,3.2
2024-02-02T10:06:00.134Z,3.2
2024-02-02T10:11:00.074Z,4.1
2024-02-02T10:16:00.109Z,3.6
2024-02-02T10:21:00.160Z,4.2
2024-02-02T10:26:00.080Z,2.2
2024-02-02T10:31:00.179Z,3.3
2024-02-02T10:36:00.187Z,3.3
2024-02-02T10:41:00.059Z,5.0
2024-02-02T10:46:00.100Z,1.8
2024-02-02T10:51:00.109Z,2.4
2024-02-02T10:56:00.110Z,2.1
2024-02-02T11:01:00.190Z,2.8
2024-02-02T11:06:00.187Z,2.8
2024-02-02T11:11:00.116Z,2.0
2024-02-02T11:16:00.096Z,1.9
2024-02-02T11:21:00.097Z,1.2
2024-02-02T11:26:00.075Z,1.7
2024-02-02T11:31:00.071Z,1.5
2024-02-02T11:36:00.114Z,1.5
2024-02-02T11:41:00.079Z,2.0
2024-02-02T11:46:00.111Z,2.7
2024-02-02T11:51:00.120Z,1.6
2024-02-02T11:56:00.065Z,3.6
2024-02-02T12:01:00.126Z,2.3
2024-02-02T12:06:00.109Z,2.3
2024-02-02T12:11:00.073Z,1.6
2024-02-02T12:16:00.201Z,1.8
2024-02-02T12:21:00.127Z,2.2
2024-02-02T12:26:00.076Z,2.3
2024-02-02T12:31:00.085Z,1.9
2024-02-02T12:36:06.927Z,1.9
2024-02-02T12:41:00.082Z,1.8
2024-02-02T12:46:00.138Z,1.7
2024-02-02T12:51:00.124Z,2.0
2024-02-02T12:56:00.146Z,2.1
2024-02-02T13:01:00.142Z,1.3
2024-02-02T13:06:00.173Z,1.3
2024-02-02T13:11:00.089Z,4.5
2024-02-02T13:16:00.137Z,0.9
2024-02-02T13:26:13.987Z,2.2
2024-02-02T13:31:14.828Z,2.8
2024-02-02T13:36:13.991Z,2.8
2024-02-02T13:41:13.984Z,3.4
2024-02-02T13:46:13.900Z,2.1
2024-02-02T13:51:14.139Z,2.5
2024-02-02T13:56:13.943Z,1.6
2024-02-02T14:01:14.142Z,3.1
2024-02-02T14:06:14.024Z,3.1
2024-02-02T14:11:14.354Z,3.2
2024-02-02T14:16:13.925Z,1.9
2024-02-02T14:21:14.142Z,2.0
2024-02-02T14:26:13.965Z,1.6
2024-02-02T14:31:14.130Z,1.4
2024-02-02T14:36:14.089Z,1.4
2024-02-02T14:41:14.136Z,2.5
2024-02-02T14:46:13.997Z,2.8
2024-02-02T14:51:14.167Z,1.5
2024-02-02T14:56:13.938Z,1.7
2024-02-02T15:01:14.171Z,1.4
2024-02-02T15:06:14.067Z,1.4
2024-02-02T15:11:13.995Z,2.3
2024-02-02T15:16:13.895Z,1.5
2024-02-02T15:21:14.176Z,5.1
2024-02-02T15:26:13.919Z,2.2
2024-02-02T15:31:13.996Z,1.2
2024-02-02T15:36:13.957Z,1.2
2024-02-02T15:41:13.959Z,1.3
2024-02-02T15:46:13.892Z,3.5
2024-02-02T15:51:13.980Z,3.3
2024-02-02T15:56:13.915Z,1.8
2024-02-02T16:01:14.044Z,1.6
2024-02-02T16:06:13.935Z,1.6
2024-02-02T16:11:13.993Z,2.0
2024-02-02T16:16:13.915Z,1.2
2024-02-02T16:21:14.166Z,1.1
2024-02-02T16:26:13.886Z,2.0
2024-02-02T16:31:14.007Z,2.4
2024-02-02T16:36:13.930Z,2.4
2024-02-02T16:41:13.969Z,2.0
2024-02-02T16:46:13.930Z,2.0
2024-02-02T16:51:14.013Z,3.6
2024-02-02T16:56:13.907Z,6.9
2024-02-02T17:01:14.018Z,1.7
2024-02-02T17:06:14.028Z,1.7
2024-02-02T17:11:14.011Z,2.7
2024-02-02T17:16:13.921Z,1.7
2024-02-02T17:26:13.902Z,3.2
2024-02-02T17:31:13.994Z,3.9
2024-02-02T17:36:13.955Z,3.9
2024-02-02T17:41:13.987Z,2.7
2024-02-02T17:46:13.939Z,1.2
2024-02-02T17:51:14.080Z,1.6
2024-02-02T17:56:13.952Z,1.3
2024-02-02T18:01:13.979Z,0.9
2024-02-02T18:06:14.023Z,0.9
2024-02-02T18:11:13.971Z,2.3
2024-02-02T18:16:14.426Z,2.1
2024-02-02T18:21:14.022Z,1.5
2024-02-02T18:26:13.924Z,2.6
2024-02-02T18:31:13.964Z,1.4
2024-02-02T18:36:13.970Z,1.4
2024-02-02T18:41:13.987Z,1.8
2024-02-02T18:46:13.953Z,3.1
2024-02-02T18:51:14.172Z,1.7
2024-02-02T18:56:13.936Z,1.7
2024-02-02T19:01:13.994Z,2.6
2024-02-02T19:06:14.021Z,2.6
2024-02-02T19:11:14.017Z,2.5
2024-02-02T19:16:13.937Z,5.2
2024-02-02T19:21:14.028Z,3.5
2024-02-02T19:26:13.939Z,2.6
2024-02-02T19:31:13.992Z,4.3
2024-02-02T19:36:13.962Z,4.3
2024-02-02T19:41:14.024Z,2.4
2024-02-02T19:46:13.944Z,2.1
2024-02-02T19:51:14.231Z,1.9
2024-02-02T19:56:13.925Z,2.2
2024-02-02T20:01:14.141Z,1.7
2024-02-02T20:06:14.083Z,1.7
2024-02-02T20:11:14.006Z,2.6
2024-02-02T20:16:13.968Z,2.7
2024-02-02T20:21:14.076Z,3.7
2024-02-02T20:26:13.965Z,2.9
2024-02-02T20:31:14.003Z,2.3
2024-02-02T20:36:13.980Z,2.3
2024-02-02T20:41:14.191Z,1.8
2024-02-02T20:46:14.028Z,3.1
2024-02-02T20:51:16.247Z,2.2
2024-02-02T20:56:13.951Z,4.7
2024-02-02T21:01:14.102Z,4.6
2024-02-02T21:06:14.281Z,4.6
2024-02-02T21:11:14.024Z,1.8
2024-02-02T21:16:13.983Z,2.5
2024-02-02T21:21:14.215Z,3.3
2024-02-02T21:26:13.953Z,1.9
2024-02-02T21:31:14.011Z,2.5
2024-02-02T21:36:14.010Z,2.5
2024-02-02T21:41:13.987Z,3.6
2024-02-02T21:46:13.955Z,3.6
2024-02-02T21:51:14.035Z,2.8
2024-02-02T21:56:13.959Z,2.5
2024-02-02T22:01:14.088Z,3.0
2024-02-02T22:06:14.011Z,3.0
2024-02-02T22:11:13.992Z,4.0
2024-02-02T22:16:13.955Z,3.5
2024-02-02T22:21:14.012Z,4.1
2024-02-02T22:26:13.946Z,2.1
2024-02-02T22:31:14.221Z,2.1
2024-02-02T22:36:13.997Z,2.7
2024-02-02T22:41:24.648Z,2.7
2024-02-02T22:46:13.979Z,2.5
2024-02-02T22:51:14.186Z,2.4
2024-02-02T22:56:13.964Z,2.6
2024-02-02T23:01:14.456Z,2.6
2024-02-02T23:06:14.071Z,3.8
2024-02-02T23:11:14.195Z,4.5
2024-02-02T23:21:14.511Z,3.1
2024-02-02T23:26:14.318Z,3.6
2024-02-02T23:31:14.239Z,3.6
2024-02-02T23:36:14.119Z,3.3
2024-02-02T23:41:14.247Z,4.5
2024-02-02T23:46:14.007Z,4.6
2024-02-02T23:51:14.278Z,4.4
2024-02-02T23:56:14.032Z,3.3
